sensor_id;sensor_type;location;lat;lon;timestamp;P1;durP1;ratioP1;P2;durP2;ratioP2
59239;SDS011;45010;53.640;10.578;2023-11-19T00:00:59;0.82;;;0.65;;
59239;SDS011;45010;53.640;10.578;2023-11-19T00:04:00;0.70;;;0.70;;
59239;SDS011;45010;53.640;10.578;2023-11-19T00:07:00;0.70;;;0.50;;
59239;SDS011;45010;53.640;10.578;2023-11-19T00:10:04;1.02;;;0.77;;
59239;SDS011;45010;53.640;10.578;2023-11-19T00:13:07;0.75;;;0.60;;
59239;SDS011;45010;53.640;10.578;2023-11-19T00:16:07;0.47;;;0.47;;
59239;SDS011;45010;53.640;10.578;2023-11-19T00:19:09;0.80;;;0.68;;
59239;SDS011;45010;53.640;10.578;2023-11-19T00:22:09;1.00;;;0.80;;
59239;SDS011;45010;53.640;10.578;2023-11-19T00:25:10;0.60;;;0.60;;
59239;SDS011;45010;53.640;10.578;2023-11-19T00:28:10;0.55;;;0.55;;
59239;SDS011;45010;53.640;10.578;2023-11-19T00:31:10;2.45;;;0.70;;
59239;SDS011;45010;53.640;10.578;2023-11-19T00:34:11;0.77;;;0.73;;
59239;SDS011;45010;53.640;10.578;2023-11-19T00:37:12;0.73;;;0.70;;
59239;SDS011;45010;53.640;10.578;2023-11-19T00:40:12;0.50;;;0.50;;
59239;SDS011;45010;53.640;10.578;2023-11-19T00:43:12;0.77;;;0.70;;
59239;SDS011;45010;53.640;10.578;2023-11-19T00:46:13;0.88;;;0.80;;
59239;SDS011;45010;53.640;10.578;2023-11-19T00:49:16;0.60;;;0.60;;
59239;SDS011;45010;53.640;10.578;2023-11-19T00:52:16;0.50;;;0.50;;
59239;SDS011;45010;53.640;10.578;2023-11-19T00:55:17;0.50;;;0.50;;
59239;SDS011;45010;53.640;10.578;2023-11-19T00:58:17;0.55;;;0.50;;
59239;SDS011;45010;53.640;10.578;2023-11-19T01:01:18;0.70;;;0.65;;
59239;SDS011;45010;53.640;10.578;2023-11-19T01:04:18;0.50;;;0.50;;
59239;SDS011;45010;53.640;10.578;2023-11-19T01:07:18;0.65;;;0.60;;
59239;SDS011;45010;53.640;10.578;2023-11-19T01:10:19;0.60;;;0.60;;
59239;SDS011;45010;53.640;10.578;2023-11-19T01:13:20;0.65;;;0.60;;
59239;SDS011;45010;53.640;10.578;2023-11-19T01:16:20;0.70;;;0.70;;
59239;SDS011;45010;53.640;10.578;2023-11-19T01:19:21;0.60;;;0.60;;
59239;SDS011;45010;53.640;10.578;2023-11-19T01:22:22;0.70;;;0.68;;
59239;SDS011;45010;53.640;10.578;2023-11-19T01:25:23;0.40;;;0.40;;
59239;SDS011;45010;53.640;10.578;2023-11-19T01:28:23;0.63;;;0.60;;
59239;SDS011;45010;53.640;10.578;2023-11-19T01:31:23;0.57;;;0.55;;
59239;SDS011;45010;53.640;10.578;2023-11-19T01:34:24;2.58;;;0.60;;
59239;SDS011;45010;53.640;10.578;2023-11-19T01:37:24;0.73;;;0.55;;
59239;SDS011;45010;53.640;10.578;2023-11-19T01:40:24;0.40;;;0.40;;
59239;SDS011;45010;53.640;10.578;2023-11-19T01:43:32;0.90;;;0.63;;
59239;SDS011;45010;53.640;10.578;2023-11-19T01:46:34;0.70;;;0.45;;
59239;SDS011;45010;53.640;10.578;2023-11-19T01:49:35;0.40;;;0.40;;
59239;SDS011;45010;53.640;10.578;2023-11-19T01:52:36;0.60;;;0.52;;
59239;SDS011;45010;53.640;10.578;2023-11-19T01:55:37;0.73;;;0.50;;
59239;SDS011;45010;53.640;10.578;2023-11-19T01:58:38;1.10;;;0.60;;
59239;SDS011;45010;53.640;10.578;2023-11-19T02:01:40;0.50;;;0.50;;
59239;SDS011;45010;53.640;10.578;2023-11-19T02:04:41;0.47;;;0.47;;
59239;SDS011;45010;53.640;10.578;2023-11-19T02:07:41;0.70;;;0.70;;
59239;SDS011;45010;53.640;10.578;2023-11-19T02:10:42;0.60;;;0.60;;
59239;SDS011;45010;53.640;10.578;2023-11-19T02:13:43;0.63;;;0.50;;
59239;SDS011;45010;53.640;10.578;2023-11-19T02:16:44;0.43;;;0.40;;
59239;SDS011;45010;53.640;10.578;2023-11-19T02:19:44;0.63;;;0.40;;
59239;SDS011;45010;53.640;10.578;2023-11-19T02:22:48;0.40;;;0.40;;
59239;SDS011;45010;53.640;10.578;2023-11-19T02:29:02;0.45;;;0.45;;
59239;SDS011;45010;53.640;10.578;2023-11-19T02:32:03;0.40;;;0.38;;
59239;SDS011;45010;53.640;10.578;2023-11-19T02:35:03;0.43;;;0.43;;
59239;SDS011;45010;53.640;10.578;2023-11-19T02:38:04;0.47;;;0.43;;
59239;SDS011;45010;53.640;10.578;2023-11-19T02:41:06;0.68;;;0.60;;
59239;SDS011;45010;53.640;10.578;2023-11-19T02:44:07;1.65;;;0.40;;
59239;SDS011;45010;53.640;10.578;2023-11-19T02:47:07;0.57;;;0.45;;
59239;SDS011;45010;53.640;10.578;2023-11-19T02:50:08;0.43;;;0.40;;
59239;SDS011;45010;53.640;10.578;2023-11-19T02:53:14;0.40;;;0.40;;
59239;SDS011;45010;53.640;10.578;2023-11-19T02:56:16;0.77;;;0.50;;
59239;SDS011;45010;53.640;10.578;2023-11-19T02:59:25;0.45;;;0.40;;
59239;SDS011;45010;53.640;10.578;2023-11-19T03:02:39;0.50;;;0.40;;
59239;SDS011;45010;53.640;10.578;2023-11-19T03:05:44;0.43;;;0.40;;
59239;SDS011;45010;53.640;10.578;2023-11-19T03:08:45;0.63;;;0.40;;
59239;SDS011;45010;53.640;10.578;2023-11-19T03:11:46;0.47;;;0.47;;
59239;SDS011;45010;53.640;10.578;2023-11-19T03:14:46;0.40;;;0.40;;
59239;SDS011;45010;53.640;10.578;2023-11-19T03:17:48;0.40;;;0.40;;
59239;SDS011;45010;53.640;10.578;2023-11-19T03:20:48;0.45;;;0.38;;
59239;SDS011;45010;53.640;10.578;2023-11-19T03:23:49;0.63;;;0.50;;
59239;SDS011;45010;53.640;10.578;2023-11-19T03:26:50;0.45;;;0.40;;
59239;SDS011;45010;53.640;10.578;2023-11-19T03:29:50;0.40;;;0.40;;
59239;SDS011;45010;53.640;10.578;2023-11-19T03:32:50;0.50;;;0.40;;
59239;SDS011;45010;53.640;10.578;2023-11-19T03:35:51;0.55;;;0.30;;
59239;SDS011;45010;53.640;10.578;2023-11-19T03:38:52;0.20;;;0.20;;
59239;SDS011;45010;53.640;10.578;2023-11-19T03:41:52;0.40;;;0.40;;
59239;SDS011;45010;53.640;10.578;2023-11-19T03:44:53;0.57;;;0.40;;
59239;SDS011;45010;53.640;10.578;2023-11-19T03:47:54;0.77;;;0.40;;
59239;SDS011;45010;53.640;10.578;2023-11-19T03:50:54;0.32;;;0.32;;
59239;SDS011;45010;53.640;10.578;2023-11-19T03:53:54;0.88;;;0.30;;
59239;SDS011;45010;53.640;10.578;2023-11-19T03:56:54;0.35;;;0.35;;
59239;SDS011;45010;53.640;10.578;2023-11-19T03:59:55;0.45;;;0.40;;
59239;SDS011;45010;53.640;10.578;2023-11-19T04:02:55;0.93;;;0.57;;
59239;SDS011;45010;53.640;10.578;2023-11-19T04:05:56;0.45;;;0.32;;
59239;SDS011;45010;53.640;10.578;2023-11-19T04:08:56;0.30;;;0.30;;
59239;SDS011;45010;53.640;10.578;2023-11-19T04:11:56;0.32;;;0.32;;
59239;SDS011;45010;53.640;10.578;2023-11-19T04:14:57;0.30;;;0.30;;
59239;SDS011;45010;53.640;10.578;2023-11-19T04:17:58;0.40;;;0.30;;
59239;SDS011;45010;53.640;10.578;2023-11-19T04:20:58;0.30;;;0.30;;
59239;SDS011;45010;53.640;10.578;2023-11-19T04:23:59;0.40;;;0.40;;
59239;SDS011;45010;53.640;10.578;2023-11-19T04:26:59;0.30;;;0.30;;
59239;SDS011;45010;53.640;10.578;2023-11-19T04:29:59;0.20;;;0.20;;
59239;SDS011;45010;53.640;10.578;2023-11-19T04:33:01;0.57;;;0.38;;
59239;SDS011;45010;53.640;10.578;2023-11-19T04:36:02;0.40;;;0.40;;
59239;SDS011;45010;53.640;10.578;2023-11-19T04:39:03;0.30;;;0.30;;
59239;SDS011;45010;53.640;10.578;2023-11-19T04:42:09;0.22;;;0.22;;
59239;SDS011;45010;53.640;10.578;2023-11-19T04:45:09;0.20;;;0.20;;
59239;SDS011;45010;53.640;10.578;2023-11-19T04:48:10;0.40;;;0.40;;
59239;SDS011;45010;53.640;10.578;2023-11-19T04:51:12;0.13;;;0.13;;
59239;SDS011;45010;53.640;10.578;2023-11-19T04:54:12;0.22;;;0.20;;
59239;SDS011;45010;53.640;10.578;2023-11-19T04:57:13;0.25;;;0.25;;
59239;SDS011;45010;53.640;10.578;2023-11-19T05:00:13;0.30;;;0.30;;
59239;SDS011;45010;53.640;10.578;2023-11-19T05:03:14;0.20;;;0.20;;
59239;SDS011;45010;53.640;10.578;2023-11-19T05:06:14;0.30;;;0.30;;
59239;SDS011;45010;53.640;10.578;2023-11-19T05:09:15;0.40;;;0.40;;
59239;SDS011;45010;53.640;10.578;2023-11-19T05:12:15;0.20;;;0.20;;
59239;SDS011;45010;53.640;10.578;2023-11-19T05:15:16;0.13;;;0.13;;
59239;SDS011;45010;53.640;10.578;2023-11-19T05:18:16;0.30;;;0.30;;
59239;SDS011;45010;53.640;10.578;2023-11-19T05:21:16;0.32;;;0.32;;
59239;SDS011;45010;53.640;10.578;2023-11-19T05:24:17;0.30;;;0.30;;
59239;SDS011;45010;53.640;10.578;2023-11-19T05:27:17;0.20;;;0.20;;
59239;SDS011;45010;53.640;10.578;2023-11-19T05:30:18;0.22;;;0.20;;
59239;SDS011;45010;53.640;10.578;2023-11-19T05:33:18;0.20;;;0.20;;
59239;SDS011;45010;53.640;10.578;2023-11-19T05:36:19;0.20;;;0.20;;
59239;SDS011;45010;53.640;10.578;2023-11-19T05:39:19;0.30;;;0.30;;
59239;SDS011;45010;53.640;10.578;2023-11-19T05:42:20;0.30;;;0.30;;
59239;SDS011;45010;53.640;10.578;2023-11-19T05:45:20;0.32;;;0.20;;
59239;SDS011;45010;53.640;10.578;2023-11-19T05:48:20;1.55;;;0.30;;
59239;SDS011;45010;53.640;10.578;2023-11-19T05:51:21;0.30;;;0.30;;
59239;SDS011;45010;53.640;10.578;2023-11-19T05:54:21;0.20;;;0.20;;
59239;SDS011;45010;53.640;10.578;2023-11-19T05:57:22;0.55;;;0.22;;
59239;SDS011;45010;53.640;10.578;2023-11-19T06:00:25;0.20;;;0.20;;
59239;SDS011;45010;53.640;10.578;2023-11-19T06:03:26;0.55;;;0.30;;
59239;SDS011;45010;53.640;10.578;2023-11-19T06:06:27;0.30;;;0.20;;
59239;SDS011;45010;53.640;10.578;2023-11-19T06:09:28;0.40;;;0.40;;
59239;SDS011;45010;53.640;10.578;2023-11-19T06:12:29;0.20;;;0.20;;
59239;SDS011;45010;53.640;10.578;2023-11-19T06:15:29;0.20;;;0.20;;
59239;SDS011;45010;53.640;10.578;2023-11-19T06:18:29;0.20;;;0.20;;
59239;SDS011;45010;53.640;10.578;2023-11-19T06:21:31;0.38;;;0.38;;
59239;SDS011;45010;53.640;10.578;2023-11-19T06:24:31;0.30;;;0.30;;
59239;SDS011;45010;53.640;10.578;2023-11-19T06:27:32;0.22;;;0.22;;
59239;SDS011;45010;53.640;10.578;2023-11-19T06:30:32;0.43;;;0.30;;
59239;SDS011;45010;53.640;10.578;2023-11-19T06:33:32;0.40;;;0.40;;
59239;SDS011;45010;53.640;10.578;2023-11-19T06:36:33;0.20;;;0.20;;
59239;SDS011;45010;53.640;10.578;2023-11-19T06:39:33;0.20;;;0.20;;
59239;SDS011;45010;53.640;10.578;2023-11-19T06:42:35;0.38;;;0.38;;
59239;SDS011;45010;53.640;10.578;2023-11-19T06:45:35;0.20;;;0.20;;
59239;SDS011;45010;53.640;10.578;2023-11-19T06:48:39;0.20;;;0.20;;
59239;SDS011;45010;53.640;10.578;2023-11-19T06:51:42;0.30;;;0.20;;
59239;SDS011;45010;53.640;10.578;2023-11-19T06:54:43;0.32;;;0.32;;
59239;SDS011;45010;53.640;10.578;2023-11-19T06:57:45;0.20;;;0.20;;
59239;SDS011;45010;53.640;10.578;2023-11-19T07:00:45;0.30;;;0.20;;
59239;SDS011;45010;53.640;10.578;2023-11-19T07:03:47;0.25;;;0.25;;
59239;SDS011;45010;53.640;10.578;2023-11-19T07:06:48;0.20;;;0.10;;
59239;SDS011;45010;53.640;10.578;2023-11-19T07:09:48;0.22;;;0.22;;
59239;SDS011;45010;53.640;10.578;2023-11-19T07:12:49;0.22;;;0.20;;
59239;SDS011;45010;53.640;10.578;2023-11-19T07:15:50;0.32;;;0.30;;
59239;SDS011;45010;53.640;10.578;2023-11-19T07:18:50;0.45;;;0.20;;
59239;SDS011;45010;53.640;10.578;2023-11-19T07:21:51;0.20;;;0.20;;
59239;SDS011;45010;53.640;10.578;2023-11-19T07:24:54;0.30;;;0.30;;
59239;SDS011;45010;53.640;10.578;2023-11-19T07:27:54;1.25;;;0.38;;
59239;SDS011;45010;53.640;10.578;2023-11-19T07:30:54;0.52;;;0.20;;
59239;SDS011;45010;53.640;10.578;2023-11-19T07:33:56;0.40;;;0.20;;
59239;SDS011;45010;53.640;10.578;2023-11-19T07:36:56;0.30;;;0.30;;
59239;SDS011;45010;53.640;10.578;2023-11-19T07:40:02;0.30;;;0.30;;
59239;SDS011;45010;53.640;10.578;2023-11-19T07:43:03;0.30;;;0.30;;
59239;SDS011;45010;53.640;10.578;2023-11-19T07:46:03;0.20;;;0.20;;
59239;SDS011;45010;53.640;10.578;2023-11-19T07:49:04;0.57;;;0.32;;
59239;SDS011;45010;53.640;10.578;2023-11-19T07:52:04;0.35;;;0.30;;
59239;SDS011;45010;53.640;10.578;2023-11-19T07:55:05;0.20;;;0.20;;
59239;SDS011;45010;53.640;10.578;2023-11-19T07:58:05;0.73;;;0.30;;
59239;SDS011;45010;53.640;10.578;2023-11-19T08:01:06;0.25;;;0.20;;
59239;SDS011;45010;53.640;10.578;2023-11-19T08:04:06;0.22;;;0.20;;
59239;SDS011;45010;53.640;10.578;2023-11-19T08:07:07;0.20;;;0.20;;
59239;SDS011;45010;53.640;10.578;2023-11-19T08:10:07;0.47;;;0.20;;
59239;SDS011;45010;53.640;10.578;2023-11-19T08:13:11;1.20;;;0.30;;
59239;SDS011;45010;53.640;10.578;2023-11-19T08:16:11;0.20;;;0.20;;
59239;SDS011;45010;53.640;10.578;2023-11-19T08:19:12;0.35;;;0.30;;
59239;SDS011;45010;53.640;10.578;2023-11-19T08:22:12;0.28;;;0.20;;
59239;SDS011;45010;53.640;10.578;2023-11-19T08:25:13;0.38;;;0.30;;
59239;SDS011;45010;53.640;10.578;2023-11-19T08:28:13;1.45;;;0.35;;
59239;SDS011;45010;53.640;10.578;2023-11-19T08:31:13;1.48;;;0.20;;
59239;SDS011;45010;53.640;10.578;2023-11-19T08:34:14;0.38;;;0.25;;
59239;SDS011;45010;53.640;10.578;2023-11-19T08:37:15;1.15;;;0.30;;
59239;SDS011;45010;53.640;10.578;2023-11-19T08:40:18;0.52;;;0.30;;
59239;SDS011;45010;53.640;10.578;2023-11-19T08:43:18;1.25;;;0.20;;
59239;SDS011;45010;53.640;10.578;2023-11-19T08:46:18;1.60;;;0.40;;
59239;SDS011;45010;53.640;10.578;2023-11-19T08:49:19;1.27;;;0.47;;
59239;SDS011;45010;53.640;10.578;2023-11-19T08:52:19;1.95;;;0.70;;
59239;SDS011;45010;53.640;10.578;2023-11-19T08:55:19;2.25;;;0.50;;
59239;SDS011;45010;53.640;10.578;2023-11-19T08:58:20;4.72;;;0.90;;
59239;SDS011;45010;53.640;10.578;2023-11-19T09:01:20;3.45;;;0.90;;
59239;SDS011;45010;53.640;10.578;2023-11-19T09:04:20;3.75;;;1.17;;
59239;SDS011;45010;53.640;10.578;2023-11-19T09:07:23;3.30;;;1.10;;
59239;SDS011;45010;53.640;10.578;2023-11-19T09:10:24;3.70;;;1.10;;
59239;SDS011;45010;53.640;10.578;2023-11-19T09:13:24;2.67;;;0.95;;
59239;SDS011;45010;53.640;10.578;2023-11-19T09:16:24;2.95;;;1.10;;
59239;SDS011;45010;53.640;10.578;2023-11-19T09:19:25;3.67;;;1.02;;
59239;SDS011;45010;53.640;10.578;2023-11-19T09:22:28;3.20;;;1.05;;
59239;SDS011;45010;53.640;10.578;2023-11-19T09:25:29;4.03;;;1.10;;
59239;SDS011;45010;53.640;10.578;2023-11-19T09:28:29;6.43;;;1.40;;
59239;SDS011;45010;53.640;10.578;2023-11-19T09:31:29;4.55;;;1.13;;
59239;SDS011;45010;53.640;10.578;2023-11-19T09:34:30;6.13;;;1.83;;
59239;SDS011;45010;53.640;10.578;2023-11-19T09:37:30;4.55;;;1.73;;
59239;SDS011;45010;53.640;10.578;2023-11-19T09:40:30;5.70;;;2.00;;
59239;SDS011;45010;53.640;10.578;2023-11-19T09:43:31;5.78;;;1.80;;
59239;SDS011;45010;53.640;10.578;2023-11-19T09:46:32;6.57;;;2.10;;
59239;SDS011;45010;53.640;10.578;2023-11-19T09:49:32;6.22;;;2.05;;
59239;SDS011;45010;53.640;10.578;2023-11-19T09:52:35;4.90;;;1.75;;
59239;SDS011;45010;53.640;10.578;2023-11-19T09:55:35;9.73;;;2.25;;
59239;SDS011;45010;53.640;10.578;2023-11-19T09:58:36;4.05;;;1.75;;
59239;SDS011;45010;53.640;10.578;2023-11-19T10:01:37;4.80;;;1.70;;
59239;SDS011;45010;53.640;10.578;2023-11-19T10:04:38;9.55;;;2.45;;
59239;SDS011;45010;53.640;10.578;2023-11-19T10:07:42;8.57;;;2.22;;
59239;SDS011;45010;53.640;10.578;2023-11-19T10:10:42;6.30;;;1.75;;
59239;SDS011;45010;53.640;10.578;2023-11-19T10:13:43;9.63;;;2.35;;
59239;SDS011;45010;53.640;10.578;2023-11-19T10:16:44;7.85;;;2.30;;
59239;SDS011;45010;53.640;10.578;2023-11-19T10:19:46;6.53;;;2.40;;
59239;SDS011;45010;53.640;10.578;2023-11-19T10:22:46;5.93;;;2.47;;
59239;SDS011;45010;53.640;10.578;2023-11-19T10:25:47;7.78;;;2.50;;
59239;SDS011;45010;53.640;10.578;2023-11-19T10:28:47;8.25;;;2.30;;
59239;SDS011;45010;53.640;10.578;2023-11-19T10:31:55;7.35;;;2.28;;
59239;SDS011;45010;53.640;10.578;2023-11-19T10:35:04;7.65;;;2.35;;
59239;SDS011;45010;53.640;10.578;2023-11-19T10:38:14;6.57;;;2.50;;
59239;SDS011;45010;53.640;10.578;2023-11-19T10:41:26;9.50;;;2.45;;
59239;SDS011;45010;53.640;10.578;2023-11-19T10:44:33;4.78;;;2.25;;
59239;SDS011;45010;53.640;10.578;2023-11-19T10:47:36;8.85;;;2.40;;
59239;SDS011;45010;53.640;10.578;2023-11-19T10:50:39;8.23;;;2.85;;
59239;SDS011;45010;53.640;10.578;2023-11-19T10:53:40;9.77;;;2.50;;
59239;SDS011;45010;53.640;10.578;2023-11-19T10:56:43;6.30;;;2.30;;
59239;SDS011;45010;53.640;10.578;2023-11-19T10:59:46;7.95;;;2.75;;
59239;SDS011;45010;53.640;10.578;2023-11-19T11:02:48;7.10;;;2.53;;
59239;SDS011;45010;53.640;10.578;2023-11-19T11:05:54;9.95;;;2.90;;
59239;SDS011;45010;53.640;10.578;2023-11-19T11:08:55;9.88;;;3.17;;
59239;SDS011;45010;53.640;10.578;2023-11-19T11:11:56;7.93;;;2.55;;
59239;SDS011;45010;53.640;10.578;2023-11-19T11:14:58;9.30;;;3.10;;
59239;SDS011;45010;53.640;10.578;2023-11-19T11:18:01;8.43;;;2.85;;
59239;SDS011;45010;53.640;10.578;2023-11-19T11:27:50;9.93;;;3.03;;
59239;SDS011;45010;53.640;10.578;2023-11-19T11:34:19;9.15;;;2.83;;
59239;SDS011;45010;53.640;10.578;2023-11-19T11:37:36;8.10;;;2.90;;
59239;SDS011;45010;53.640;10.578;2023-11-19T11:40:43;10.98;;;3.72;;
59239;SDS011;45010;53.640;10.578;2023-11-19T11:43:43;11.55;;;3.38;;
59239;SDS011;45010;53.640;10.578;2023-11-19T11:46:54;9.25;;;2.72;;
59239;SDS011;45010;53.640;10.578;2023-11-19T11:49:55;8.30;;;3.25;;
59239;SDS011;45010;53.640;10.578;2023-11-19T11:55:58;9.10;;;2.85;;
59239;SDS011;45010;53.640;10.578;2023-11-19T11:58:59;15.77;;;3.40;;
59239;SDS011;45010;53.640;10.578;2023-11-19T12:02:00;9.07;;;2.92;;
59239;SDS011;45010;53.640;10.578;2023-11-19T12:05:00;9.13;;;3.33;;
59239;SDS011;45010;53.640;10.578;2023-11-19T12:08:04;6.88;;;2.70;;
59239;SDS011;45010;53.640;10.578;2023-11-19T12:11:06;9.65;;;3.53;;
59239;SDS011;45010;53.640;10.578;2023-11-19T12:14:08;8.02;;;2.75;;
59239;SDS011;45010;53.640;10.578;2023-11-19T12:20:33;9.98;;;2.80;;
59239;SDS011;45010;53.640;10.578;2023-11-19T12:23:44;11.82;;;3.70;;
59239;SDS011;45010;53.640;10.578;2023-11-19T12:26:46;8.50;;;2.80;;
59239;SDS011;45010;53.640;10.578;2023-11-19T12:29:50;8.57;;;2.70;;
59239;SDS011;45010;53.640;10.578;2023-11-19T12:32:50;8.55;;;2.88;;
59239;SDS011;45010;53.640;10.578;2023-11-19T12:35:53;9.85;;;2.90;;
59239;SDS011;45010;53.640;10.578;2023-11-19T12:38:54;7.68;;;2.65;;
59239;SDS011;45010;53.640;10.578;2023-11-19T12:41:54;7.65;;;2.63;;
59239;SDS011;45010;53.640;10.578;2023-11-19T12:44:55;7.15;;;2.75;;
59239;SDS011;45010;53.640;10.578;2023-11-19T12:48:05;7.22;;;2.70;;
59239;SDS011;45010;53.640;10.578;2023-11-19T12:51:07;7.63;;;2.22;;
59239;SDS011;45010;53.640;10.578;2023-11-19T12:54:07;7.65;;;2.50;;
59239;SDS011;45010;53.640;10.578;2023-11-19T12:57:08;9.20;;;3.35;;
59239;SDS011;45010;53.640;10.578;2023-11-19T13:00:18;8.20;;;2.80;;
59239;SDS011;45010;53.640;10.578;2023-11-19T13:03:35;6.68;;;2.45;;
59239;SDS011;45010;53.640;10.578;2023-11-19T13:06:36;7.70;;;2.80;;
59239;SDS011;45010;53.640;10.578;2023-11-19T13:09:45;7.18;;;2.67;;
59239;SDS011;45010;53.640;10.578;2023-11-19T13:12:59;9.35;;;3.10;;
59239;SDS011;45010;53.640;10.578;2023-11-19T13:16:04;8.18;;;2.75;;
59239;SDS011;45010;53.640;10.578;2023-11-19T13:19:09;7.00;;;2.70;;
59239;SDS011;45010;53.640;10.578;2023-11-19T13:22:10;5.65;;;2.58;;
59239;SDS011;45010;53.640;10.578;2023-11-19T13:25:10;9.15;;;2.28;;
59239;SDS011;45010;53.640;10.578;2023-11-19T13:28:10;8.38;;;2.90;;
59239;SDS011;45010;53.640;10.578;2023-11-19T13:31:10;7.88;;;2.88;;
59239;SDS011;45010;53.640;10.578;2023-11-19T13:34:11;11.40;;;2.58;;
59239;SDS011;45010;53.640;10.578;2023-11-19T13:37:11;7.95;;;2.25;;
59239;SDS011;45010;53.640;10.578;2023-11-19T13:40:12;8.63;;;2.85;;
59239;SDS011;45010;53.640;10.578;2023-11-19T13:43:15;8.15;;;2.80;;
59239;SDS011;45010;53.640;10.578;2023-11-19T13:46:15;8.45;;;2.20;;
59239;SDS011;45010;53.640;10.578;2023-11-19T13:49:16;8.02;;;2.72;;
59239;SDS011;45010;53.640;10.578;2023-11-19T13:52:16;6.80;;;2.20;;
59239;SDS011;45010;53.640;10.578;2023-11-19T13:55:16;8.13;;;2.45;;
59239;SDS011;45010;53.640;10.578;2023-11-19T13:58:18;10.15;;;3.08;;
59239;SDS011;45010;53.640;10.578;2023-11-19T14:01:18;9.40;;;2.65;;
59239;SDS011;45010;53.640;10.578;2023-11-19T14:04:18;8.68;;;2.40;;
59239;SDS011;45010;53.640;10.578;2023-11-19T14:07:19;9.00;;;2.88;;
59239;SDS011;45010;53.640;10.578;2023-11-19T14:10:19;6.82;;;2.28;;
59239;SDS011;45010;53.640;10.578;2023-11-19T14:13:19;7.75;;;2.33;;
59239;SDS011;45010;53.640;10.578;2023-11-19T14:16:20;7.05;;;2.90;;
59239;SDS011;45010;53.640;10.578;2023-11-19T14:19:21;6.28;;;2.08;;
59239;SDS011;45010;53.640;10.578;2023-11-19T14:22:21;8.30;;;2.17;;
59239;SDS011;45010;53.640;10.578;2023-11-19T14:25:21;7.30;;;2.33;;
59239;SDS011;45010;53.640;10.578;2023-11-19T14:28:23;6.18;;;2.17;;
59239;SDS011;45010;53.640;10.578;2023-11-19T14:31:27;7.38;;;2.35;;
59239;SDS011;45010;53.640;10.578;2023-11-19T14:34:31;5.53;;;2.13;;
59239;SDS011;45010;53.640;10.578;2023-11-19T14:37:32;5.28;;;2.22;;
59239;SDS011;45010;53.640;10.578;2023-11-19T14:40:33;5.57;;;1.77;;
59239;SDS011;45010;53.640;10.578;2023-11-19T14:43:33;7.20;;;2.70;;
59239;SDS011;45010;53.640;10.578;2023-11-19T14:46:33;5.30;;;2.35;;
59239;SDS011;45010;53.640;10.578;2023-11-19T14:49:37;6.05;;;2.08;;
59239;SDS011;45010;53.640;10.578;2023-11-19T14:52:37;5.50;;;2.00;;
59239;SDS011;45010;53.640;10.578;2023-11-19T14:55:37;6.53;;;1.92;;
59239;SDS011;45010;53.640;10.578;2023-11-19T14:58:38;5.80;;;2.38;;
59239;SDS011;45010;53.640;10.578;2023-11-19T15:01:38;5.32;;;1.90;;
59239;SDS011;45010;53.640;10.578;2023-11-19T15:04:40;6.45;;;2.40;;
59239;SDS011;45010;53.640;10.578;2023-11-19T15:07:42;5.45;;;1.90;;
59239;SDS011;45010;53.640;10.578;2023-11-19T15:10:42;4.07;;;1.73;;
59239;SDS011;45010;53.640;10.578;2023-11-19T15:13:44;6.35;;;1.83;;
59239;SDS011;45010;53.640;10.578;2023-11-19T15:16:45;5.57;;;1.90;;
59239;SDS011;45010;53.640;10.578;2023-11-19T15:19:46;5.80;;;2.50;;
59239;SDS011;45010;53.640;10.578;2023-11-19T15:22:47;7.05;;;1.98;;
59239;SDS011;45010;53.640;10.578;2023-11-19T15:25:47;6.07;;;2.28;;
59239;SDS011;45010;53.640;10.578;2023-11-19T15:28:49;6.13;;;1.77;;
59239;SDS011;45010;53.640;10.578;2023-11-19T15:31:49;5.00;;;1.75;;
59239;SDS011;45010;53.640;10.578;2023-11-19T15:34:49;6.43;;;2.00;;
59239;SDS011;45010;53.640;10.578;2023-11-19T15:37:50;6.00;;;1.90;;
59239;SDS011;45010;53.640;10.578;2023-11-19T15:40:50;7.22;;;1.80;;
59239;SDS011;45010;53.640;10.578;2023-11-19T15:43:51;6.18;;;1.75;;
59239;SDS011;45010;53.640;10.578;2023-11-19T15:46:52;3.97;;;1.75;;
59239;SDS011;45010;53.640;10.578;2023-11-19T15:49:53;5.18;;;1.90;;
59239;SDS011;45010;53.640;10.578;2023-11-19T15:52:54;7.20;;;2.00;;
59239;SDS011;45010;53.640;10.578;2023-11-19T15:55:54;3.03;;;1.52;;
59239;SDS011;45010;53.640;10.578;2023-11-19T15:58:54;4.22;;;1.48;;
59239;SDS011;45010;53.640;10.578;2023-11-19T16:01:54;5.25;;;1.67;;
59239;SDS011;45010;53.640;10.578;2023-11-19T16:04:55;6.00;;;2.08;;
59239;SDS011;45010;53.640;10.578;2023-11-19T16:07:55;4.25;;;1.83;;
59239;SDS011;45010;53.640;10.578;2023-11-19T16:10:55;4.53;;;1.42;;
59239;SDS011;45010;53.640;10.578;2023-11-19T16:13:56;3.70;;;1.88;;
59239;SDS011;45010;53.640;10.578;2023-11-19T16:16:56;5.03;;;1.60;;
59239;SDS011;45010;53.640;10.578;2023-11-19T16:19:56;3.53;;;1.58;;
59239;SDS011;45010;53.640;10.578;2023-11-19T16:22:57;4.55;;;1.58;;
59239;SDS011;45010;53.640;10.578;2023-11-19T16:26:00;5.45;;;1.65;;
59239;SDS011;45010;53.640;10.578;2023-11-19T16:29:02;5.70;;;1.63;;
59239;SDS011;45010;53.640;10.578;2023-11-19T16:32:03;4.30;;;1.55;;
59239;SDS011;45010;53.640;10.578;2023-11-19T16:35:03;3.17;;;1.25;;
59239;SDS011;45010;53.640;10.578;2023-11-19T16:38:04;5.38;;;1.52;;
59239;SDS011;45010;53.640;10.578;2023-11-19T16:41:06;4.45;;;1.65;;
59239;SDS011;45010;53.640;10.578;2023-11-19T16:44:06;3.72;;;1.88;;
59239;SDS011;45010;53.640;10.578;2023-11-19T16:47:07;5.38;;;1.90;;
59239;SDS011;45010;53.640;10.578;2023-11-19T16:50:07;9.40;;;2.00;;
59239;SDS011;45010;53.640;10.578;2023-11-19T16:53:08;3.70;;;1.45;;
59239;SDS011;45010;53.640;10.578;2023-11-19T16:56:08;4.72;;;1.58;;
59239;SDS011;45010;53.640;10.578;2023-11-19T16:59:09;3.63;;;1.65;;
59239;SDS011;45010;53.640;10.578;2023-11-19T17:02:09;5.47;;;2.08;;
59239;SDS011;45010;53.640;10.578;2023-11-19T17:05:11;4.97;;;2.33;;
59239;SDS011;45010;53.640;10.578;2023-11-19T17:08:11;6.10;;;2.65;;
59239;SDS011;45010;53.640;10.578;2023-11-19T17:11:12;5.63;;;2.10;;
59239;SDS011;45010;53.640;10.578;2023-11-19T17:14:12;5.57;;;1.95;;
59239;SDS011;45010;53.640;10.578;2023-11-19T17:17:13;6.88;;;2.05;;
59239;SDS011;45010;53.640;10.578;2023-11-19T17:20:14;4.88;;;1.80;;
59239;SDS011;45010;53.640;10.578;2023-11-19T17:23:15;5.07;;;2.00;;
59239;SDS011;45010;53.640;10.578;2023-11-19T17:26:15;6.40;;;2.20;;
59239;SDS011;45010;53.640;10.578;2023-11-19T17:29:16;7.15;;;2.38;;
59239;SDS011;45010;53.640;10.578;2023-11-19T17:32:17;4.50;;;1.90;;
59239;SDS011;45010;53.640;10.578;2023-11-19T17:35:17;3.88;;;2.13;;
59239;SDS011;45010;53.640;10.578;2023-11-19T17:38:18;6.13;;;2.25;;
59239;SDS011;45010;53.640;10.578;2023-11-19T17:41:21;5.10;;;2.17;;
59239;SDS011;45010;53.640;10.578;2023-11-19T17:44:21;6.22;;;2.20;;
59239;SDS011;45010;53.640;10.578;2023-11-19T17:47:22;6.72;;;2.10;;
59239;SDS011;45010;53.640;10.578;2023-11-19T17:50:22;5.10;;;2.28;;
59239;SDS011;45010;53.640;10.578;2023-11-19T17:53:23;4.75;;;2.17;;
59239;SDS011;45010;53.640;10.578;2023-11-19T17:56:24;4.85;;;1.83;;
59239;SDS011;45010;53.640;10.578;2023-11-19T17:59:24;3.45;;;1.85;;
59239;SDS011;45010;53.640;10.578;2023-11-19T18:02:24;4.68;;;2.05;;
59239;SDS011;45010;53.640;10.578;2023-11-19T18:05:25;3.67;;;1.85;;
59239;SDS011;45010;53.640;10.578;2023-11-19T18:08:26;3.88;;;1.58;;
59239;SDS011;45010;53.640;10.578;2023-11-19T18:11:27;6.40;;;2.10;;
59239;SDS011;45010;53.640;10.578;2023-11-19T18:14:27;4.55;;;1.73;;